sensor_id;sensor_type;location;lat;lon;timestamp;pressure;altitude;pressure_sealevel;temperature;humidity
60583;BME280;46415;47.536;19.066;2023-07-13T00:02:59;-18842.53;;;22.68;100.00
60583;BME280;46415;47.536;19.066;2023-07-13T00:06:02;-18834.28;;;22.37;100.00
60583;BME280;46415;47.536;19.066;2023-07-13T00:09:05;-18824.53;;;22.01;100.00
60583;BME280;46415;47.536;19.066;2023-07-13T00:12:21;-18819.09;;;21.81;100.00
60583;BME280;46415;47.536;19.066;2023-07-13T00:15:25;-18814.75;;;21.65;100.00
60583;BME280;46415;47.536;19.066;2023-07-13T00:18:28;-18808.94;;;21.43;100.00
60583;BME280;46415;47.536;19.066;2023-07-13T00:21:32;-18805.81;;;21.31;100.00
60583;BME280;46415;47.536;19.066;2023-07-13T00:24:35;-18801.34;;;21.14;100.00
60583;BME280;46415;47.536;19.066;2023-07-13T00:27:42;-18798.06;;;21.02;100.00
60583;BME280;46415;47.536;19.066;2023-07-13T00:30:45;-18796.44;;;20.96;100.00
60583;BME280;46415;47.536;19.066;2023-07-13T00:33:51;-18795.63;;;20.93;100.00
60583;BME280;46415;47.536;19.066;2023-07-13T00:36:54;-18795.78;;;20.94;100.00
60583;BME280;46415;47.536;19.066;2023-07-13T00:39:56;-18794.56;;;20.89;100.00
60583;BME280;46415;47.536;19.066;2023-07-13T00:42:59;-18795.78;;;20.94;100.00
60583;BME280;46415;47.536;19.066;2023-07-13T00:46:09;-18797.81;;;21.01;100.00
60583;BME280;46415;47.536;19.066;2023-07-13T00:49:14;-18801.47;;;21.15;100.00
60583;BME280;46415;47.536;19.066;2023-07-13T00:52:17;-18803.63;;;21.23;100.00
60583;BME280;46415;47.536;19.066;2023-07-13T00:55:20;-18806.22;;;21.33;100.00
60583;BME280;46415;47.536;19.066;2023-07-13T00:58:24;-18809.06;;;21.43;100.00
60583;BME280;46415;47.536;19.066;2023-07-13T01:01:27;-18810.97;;;21.50;100.00
60583;BME280;46415;47.536;19.066;2023-07-13T01:04:30;-18813.25;;;21.59;100.00
60583;BME280;46415;47.536;19.066;2023-07-13T01:07:32;-18815.56;;;21.68;100.00
60583;BME280;46415;47.536;19.066;2023-07-13T01:10:35;-18820.31;;;21.85;100.00
60583;BME280;46415;47.536;19.066;2023-07-13T01:13:41;-18821.66;;;21.90;100.00
60583;BME280;46415;47.536;19.066;2023-07-13T01:16:44;-18822.06;;;21.92;100.00
60583;BME280;46415;47.536;19.066;2023-07-13T01:19:49;-18821.25;;;21.89;100.00
60583;BME280;46415;47.536;19.066;2023-07-13T01:22:52;-18821.25;;;21.89;100.00
60583;BME280;46415;47.536;19.066;2023-07-13T01:25:56;-18819.50;;;21.82;100.00
60583;BME280;46415;47.536;19.066;2023-07-13T01:28:58;-18822.06;;;21.92;100.00
60583;BME280;46415;47.536;19.066;2023-07-13T01:32:01;-18827.50;;;22.12;100.00
60583;BME280;46415;47.536;19.066;2023-07-13T01:35:03;-18824.13;;;21.99;100.00
60583;BME280;46415;47.536;19.066;2023-07-13T01:38:06;-18822.22;;;21.92;100.00
60583;BME280;46415;47.536;19.066;2023-07-13T01:41:10;-18821.25;;;21.89;100.00
60583;BME280;46415;47.536;19.066;2023-07-13T01:44:13;-18820.84;;;21.87;100.00
60583;BME280;46415;47.536;19.066;2023-07-13T01:47:16;-18819.50;;;21.82;100.00
60583;BME280;46415;47.536;19.066;2023-07-13T01:50:19;-18818.56;;;21.79;100.00
60583;BME280;46415;47.536;19.066;2023-07-13T01:53:22;-18817.06;;;21.73;100.00
60583;BME280;46415;47.536;19.066;2023-07-13T01:56:24;-18813.41;;;21.59;100.00
60583;BME280;46415;47.536;19.066;2023-07-13T01:59:27;-18811.38;;;21.52;100.00
60583;BME280;46415;47.536;19.066;2023-07-13T02:02:30;-18810.69;;;21.49;100.00
60583;BME280;46415;47.536;19.066;2023-07-13T02:05:33;-18809.75;;;21.46;100.00
60583;BME280;46415;47.536;19.066;2023-07-13T02:08:35;-18811.78;;;21.53;100.00
60583;BME280;46415;47.536;19.066;2023-07-13T02:11:38;-18811.22;;;21.51;100.00
60583;BME280;46415;47.536;19.066;2023-07-13T02:14:40;-18812.31;;;21.55;100.00
60583;BME280;46415;47.536;19.066;2023-07-13T02:17:43;-18815.84;;;21.69;100.00
60583;BME280;46415;47.536;19.066;2023-07-13T02:20:45;-18814.22;;;21.63;100.00
60583;BME280;46415;47.536;19.066;2023-07-13T02:23:48;-18811.63;;;21.53;100.00
60583;BME280;46415;47.536;19.066;2023-07-13T02:26:51;-18808.66;;;21.42;100.00
60583;BME280;46415;47.536;19.066;2023-07-13T02:29:55;-18807.31;;;21.37;100.00
60583;BME280;46415;47.536;19.066;2023-07-13T02:32:57;-18805.28;;;21.29;100.00
60583;BME280;46415;47.536;19.066;2023-07-13T02:36:00;-18805.00;;;21.28;100.00
60583;BME280;46415;47.536;19.066;2023-07-13T02:39:04;-18807.44;;;21.37;100.00
60583;BME280;46415;47.536;19.066;2023-07-13T02:42:10;-18803.63;;;21.23;100.00
60583;BME280;46415;47.536;19.066;2023-07-13T02:45:12;-18802.84;;;21.20;100.00
60583;BME280;46415;47.536;19.066;2023-07-13T02:48:16;-18804.47;;;21.26;100.00
60583;BME280;46415;47.536;19.066;2023-07-13T02:51:18;-18801.88;;;21.16;100.00
60583;BME280;46415;47.536;19.066;2023-07-13T02:54:21;-18800.66;;;21.12;100.00
60583;BME280;46415;47.536;19.066;2023-07-13T02:57:23;-18799.84;;;21.09;100.00
60583;BME280;46415;47.536;19.066;2023-07-13T03:00:26;-18799.16;;;21.06;100.00
60583;BME280;46415;47.536;19.066;2023-07-13T03:03:29;-18798.88;;;21.05;100.00
60583;BME280;46415;47.536;19.066;2023-07-13T03:06:32;-18798.47;;;21.04;100.00
60583;BME280;46415;47.536;19.066;2023-07-13T03:09:35;-18798.88;;;21.05;100.00
60583;BME280;46415;47.536;19.066;2023-07-13T03:12:38;-18797.13;;;20.99;100.00
60583;BME280;46415;47.536;19.066;2023-07-13T03:15:41;-18796.44;;;20.96;100.00
60583;BME280;46415;47.536;19.066;2023-07-13T03:18:45;-18795.63;;;20.93;100.00
60583;BME280;46415;47.536;19.066;2023-07-13T03:21:48;-18798.75;;;21.05;100.00
60583;BME280;46415;47.536;19.066;2023-07-13T03:24:50;-18801.19;;;21.14;100.00
60583;BME280;46415;47.536;19.066;2023-07-13T03:27:53;-18803.38;;;21.22;100.00
60583;BME280;46415;47.536;19.066;2023-07-13T03:31:04;-18806.91;;;21.35;100.00
60583;BME280;46415;47.536;19.066;2023-07-13T03:34:07;-18811.78;;;21.53;100.00
60583;BME280;46415;47.536;19.066;2023-07-13T03:37:10;-18813.69;;;21.61;100.00
60583;BME280;46415;47.536;19.066;2023-07-13T03:40:13;-18815.16;;;21.66;100.00
60583;BME280;46415;47.536;19.066;2023-07-13T03:43:18;-18817.34;;;21.74;100.00
60583;BME280;46415;47.536;19.066;2023-07-13T03:46:20;-18820.19;;;21.85;100.00
60583;BME280;46415;47.536;19.066;2023-07-13T03:49:23;-18821.41;;;21.89;100.00
60583;BME280;46415;47.536;19.066;2023-07-13T03:52:25;-18825.34;;;22.04;100.00
60583;BME280;46415;47.536;19.066;2023-07-13T03:55:28;-18828.03;;;22.14;100.00
60583;BME280;46415;47.536;19.066;2023-07-13T03:58:32;-18830.06;;;22.22;100.00
60583;BME280;46415;47.536;19.066;2023-07-13T04:01:37;-18832.66;;;22.31;100.00
60583;BME280;46415;47.536;19.066;2023-07-13T04:04:40;-18836.72;;;22.47;100.00
60583;BME280;46415;47.536;19.066;2023-07-13T04:07:43;-18838.06;;;22.52;100.00
60583;BME280;46415;47.536;19.066;2023-07-13T04:10:46;-18838.06;;;22.52;100.00
60583;BME280;46415;47.536;19.066;2023-07-13T04:13:48;-18839.97;;;22.59;100.00
60583;BME280;46415;47.536;19.066;2023-07-13T04:16:51;-18839.97;;;22.59;100.00
60583;BME280;46415;47.536;19.066;2023-07-13T04:19:54;-18838.75;;;22.54;100.00
60583;BME280;46415;47.536;19.066;2023-07-13T04:22:57;-18836.84;;;22.47;100.00
60583;BME280;46415;47.536;19.066;2023-07-13T04:25:59;-18833.88;;;22.36;100.00
60583;BME280;46415;47.536;19.066;2023-07-13T04:29:02;-18832.50;;;22.31;100.00
60583;BME280;46415;47.536;19.066;2023-07-13T04:32:06;-18832.09;;;22.29;100.00
60583;BME280;46415;47.536;19.066;2023-07-13T04:35:09;-18833.06;;;22.33;100.00
60583;BME280;46415;47.536;19.066;2023-07-13T04:38:11;-18834.53;;;22.38;100.00
60583;BME280;46415;47.536;19.066;2023-07-13T04:41:15;-18837.53;;;22.50;100.00
60583;BME280;46415;47.536;19.066;2023-07-13T04:44:17;-18838.06;;;22.52;100.00
60583;BME280;46415;47.536;19.066;2023-07-13T04:47:20;-18836.16;;;22.45;100.00
60583;BME280;46415;47.536;19.066;2023-07-13T04:50:22;-18832.91;;;22.32;100.00
60583;BME280;46415;47.536;19.066;2023-07-13T04:53:26;-18829.94;;;22.21;100.00
60583;BME280;46415;47.536;19.066;2023-07-13T04:56:28;-18826.97;;;22.10;100.00
60583;BME280;46415;47.536;19.066;2023-07-13T04:59:33;-18819.78;;;21.83;100.00
60583;BME280;46415;47.536;19.066;2023-07-13T05:02:37;-18814.09;;;21.62;100.00
60583;BME280;46415;47.536;19.066;2023-07-13T05:05:40;-18807.56;;;21.38;100.00
60583;BME280;46415;47.536;19.066;2023-07-13T05:08:42;-18799.72;;;21.08;100.00
60583;BME280;46415;47.536;19.066;2023-07-13T05:11:45;-18794.28;;;20.88;100.00
60583;BME280;46415;47.536;19.066;2023-07-13T05:14:47;-18787.91;;;20.64;100.00
60583;BME280;46415;47.536;19.066;2023-07-13T05:17:51;-18777.19;;;20.24;100.00
60583;BME280;46415;47.536;19.066;2023-07-13T05:21:04;-18772.44;;;20.07;100.00
60583;BME280;46415;47.536;19.066;2023-07-13T05:24:07;-18773.78;;;20.12;100.00
60583;BME280;46415;47.536;19.066;2023-07-13T05:27:25;-18764.81;;;19.78;100.00
60583;BME280;46415;47.536;19.066;2023-07-13T05:30:28;-18755.19;;;19.42;100.00
60583;BME280;46415;47.536;19.066;2023-07-13T05:33:31;-18754.34;;;19.39;100.00
60583;BME280;46415;47.536;19.066;2023-07-13T05:36:33;-18750.97;;;19.27;100.00
60583;BME280;46415;47.536;19.066;2023-07-13T05:39:36;-18750.00;;;19.23;100.00
60583;BME280;46415;47.536;19.066;2023-07-13T05:42:39;-18749.34;;;19.21;100.00
60583;BME280;46415;47.536;19.066;2023-07-13T05:45:41;-18747.84;;;19.15;100.00
60583;BME280;46415;47.536;19.066;2023-07-13T05:48:44;-18745.53;;;19.06;100.00
60583;BME280;46415;47.536;19.066;2023-07-13T05:51:46;-18744.44;;;19.02;100.00
60583;BME280;46415;47.536;19.066;2023-07-13T05:54:49;-18743.50;;;18.99;100.00
60583;BME280;46415;47.536;19.066;2023-07-13T05:57:51;-18740.09;;;18.86;100.00
60583;BME280;46415;47.536;19.066;2023-07-13T06:01:01;-18736.56;;;18.73;100.00
60583;BME280;46415;47.536;19.066;2023-07-13T06:04:04;-18735.75;;;18.70;100.00
60583;BME280;46415;47.536;19.066;2023-07-13T06:07:07;-18733.03;;;18.60;100.00
60583;BME280;46415;47.536;19.066;2023-07-13T06:10:09;-18731.53;;;18.54;100.00
60583;BME280;46415;47.536;19.066;2023-07-13T06:13:12;-18732.06;;;18.56;100.00
60583;BME280;46415;47.536;19.066;2023-07-13T06:16:15;-18731.81;;;18.55;100.00
60583;BME280;46415;47.536;19.066;2023-07-13T06:19:17;-18730.31;;;18.50;100.00
60583;BME280;46415;47.536;19.066;2023-07-13T06:22:20;-18730.97;;;18.52;100.00
60583;BME280;46415;47.536;19.066;2023-07-13T06:25:23;-18728.25;;;18.42;100.00
60583;BME280;46415;47.536;19.066;2023-07-13T06:28:25;-18728.81;;;18.44;100.00
60583;BME280;46415;47.536;19.066;2023-07-13T06:31:28;-18728.94;;;18.45;100.00
60583;BME280;46415;47.536;19.066;2023-07-13T06:34:30;-18731.66;;;18.55;100.00
60583;BME280;46415;47.536;19.066;2023-07-13T06:37:33;-18734.25;;;18.64;100.00
60583;BME280;46415;47.536;19.066;2023-07-13T06:40:36;-18737.66;;;18.77;100.00
60583;BME280;46415;47.536;19.066;2023-07-13T06:43:39;-18742.13;;;18.94;100.00
60583;BME280;46415;47.536;19.066;2023-07-13T06:46:41;-18746.63;;;19.10;100.00
60583;BME280;46415;47.536;19.066;2023-07-13T06:49:44;-18748.25;;;19.16;100.00
60583;BME280;46415;47.536;19.066;2023-07-13T06:52:46;-18750.69;;;19.26;100.00
60583;BME280;46415;47.536;19.066;2023-07-13T06:55:49;-18757.75;;;19.52;100.00
60583;BME280;46415;47.536;19.066;2023-07-13T06:58:51;-18763.31;;;19.73;100.00
60583;BME280;46415;47.536;19.066;2023-07-13T07:01:54;-18771.06;;;20.02;100.00
60583;BME280;46415;47.536;19.066;2023-07-13T07:04:57;-18778.00;;;20.27;100.00
60583;BME280;46415;47.536;19.066;2023-07-13T07:07:59;-18783.97;;;20.50;100.00
60583;BME280;46415;47.536;19.066;2023-07-13T07:11:02;-18789.13;;;20.69;100.00
60583;BME280;46415;47.536;19.066;2023-07-13T07:14:04;-18800.94;;;21.13;100.00
60583;BME280;46415;47.536;19.066;2023-07-13T07:17:07;-18807.16;;;21.36;100.00
60583;BME280;46415;47.536;19.066;2023-07-13T07:20:10;-18816.38;;;21.71;100.00
60583;BME280;46415;47.536;19.066;2023-07-13T07:23:12;-18823.03;;;21.95;100.00
60583;BME280;46415;47.536;19.066;2023-07-13T07:26:16;-18822.91;;;21.95;100.00
60583;BME280;46415;47.536;19.066;2023-07-13T07:29:19;-18825.06;;;22.03;100.00
60583;BME280;46415;47.536;19.066;2023-07-13T07:32:24;-18827.37;;;22.12;100.00
60583;BME280;46415;47.536;19.066;2023-07-13T07:35:30;-18834.81;;;22.39;100.00
60583;BME280;46415;47.536;19.066;2023-07-13T07:38:39;-18839.28;;;22.56;100.00
60583;BME280;46415;47.536;19.066;2023-07-13T07:41:41;-18825.88;;;22.06;100.00
60583;BME280;46415;47.536;19.066;2023-07-13T07:44:58;-18818.81;;;21.80;100.00
60583;BME280;46415;47.536;19.066;2023-07-13T07:48:01;-18818.41;;;21.78;100.00
60583;BME280;46415;47.536;19.066;2023-07-13T07:51:03;-18826.41;;;22.08;100.00
60583;BME280;46415;47.536;19.066;2023-07-13T07:54:06;-18833.06;;;22.33;100.00
60583;BME280;46415;47.536;19.066;2023-07-13T07:57:08;-18830.75;;;22.24;100.00
60583;BME280;46415;47.536;19.066;2023-07-13T08:00:15;-18834.53;;;22.38;100.00
60583;BME280;46415;47.536;19.066;2023-07-13T08:03:22;-18840.22;;;22.60;100.00
60583;BME280;46415;47.536;19.066;2023-07-13T08:06:27;-18844.84;;;22.77;100.00
60583;BME280;46415;47.536;19.066;2023-07-13T08:09:46;-18857.28;;;23.24;100.00
60583;BME280;46415;47.536;19.066;2023-07-13T08:12:49;-18862.03;;;23.41;100.00
60583;BME280;46415;47.536;19.066;2023-07-13T08:15:54;-18866.63;;;23.58;100.00
60583;BME280;46415;47.536;19.066;2023-07-13T08:18:57;-18868.25;;;23.65;100.00
60583;BME280;46415;47.536;19.066;2023-07-13T08:21:59;-18875.56;;;23.92;100.00
60583;BME280;46415;47.536;19.066;2023-07-13T08:25:02;-18873.81;;;23.85;100.00
60583;BME280;46415;47.536;19.066;2023-07-13T08:28:05;-18880.44;;;24.10;100.00
60583;BME280;46415;47.536;19.066;2023-07-13T08:31:07;-18883.28;;;24.21;100.00
60583;BME280;46415;47.536;19.066;2023-07-13T08:34:10;-18891.91;;;24.53;100.00
60583;BME280;46415;47.536;19.066;2023-07-13T08:37:13;-18896.25;;;24.69;100.00
60583;BME280;46415;47.536;19.066;2023-07-13T08:40:24;-18896.38;;;24.70;97.34
60583;BME280;46415;47.536;19.066;2023-07-13T08:43:35;-18903.81;;;24.98;97.70
60583;BME280;46415;47.536;19.066;2023-07-13T08:46:38;-18899.22;;;24.80;93.52
60583;BME280;46415;47.536;19.066;2023-07-13T08:49:43;-18895.16;;;24.65;93.20
60583;BME280;46415;47.536;19.066;2023-07-13T08:52:46;-18892.47;;;24.55;94.40
60583;BME280;46415;47.536;19.066;2023-07-13T08:55:50;-18898.13;;;24.76;94.48
60583;BME280;46415;47.536;19.066;2023-07-13T08:58:56;-18894.50;;;24.63;96.94
60583;BME280;46415;47.536;19.066;2023-07-13T09:14:47;-18896.78;;;24.71;94.31
60583;BME280;46415;47.536;19.066;2023-07-13T09:17:51;-18901.66;;;24.90;94.71
60583;BME280;46415;47.536;19.066;2023-07-13T09:20:56;-18908.00;;;25.13;94.44
60583;BME280;46415;47.536;19.066;2023-07-13T09:24:21;-18913.00;;;25.32;94.25
60583;BME280;46415;47.536;19.066;2023-07-13T09:27:25;-18920.03;;;25.58;91.20
60583;BME280;46415;47.536;19.066;2023-07-13T09:30:37;-18918.41;;;25.52;92.49
60583;BME280;46415;47.536;19.066;2023-07-13T09:33:42;-18911.78;;;25.28;89.93
60583;BME280;46415;47.536;19.066;2023-07-13T09:36:45;-18914.63;;;25.38;89.54
60583;BME280;46415;47.536;19.066;2023-07-13T09:39:47;-18905.44;;;25.04;88.10
60583;BME280;46415;47.536;19.066;2023-07-13T09:42:52;-18901.66;;;24.90;89.50
60583;BME280;46415;47.536;19.066;2023-07-13T09:45:55;-18910.03;;;25.21;91.38
60583;BME280;46415;47.536;19.066;2023-07-13T09:48:58;-18917.72;;;25.50;86.15
60583;BME280;46415;47.536;19.066;2023-07-13T09:52:04;-18923.13;;;25.70;88.12
60583;BME280;46415;47.536;19.066;2023-07-13T09:55:24;-18929.75;;;25.95;84.86
60583;BME280;46415;47.536;19.066;2023-07-13T09:58:30;-18942.69;;;26.44;84.37
60583;BME280;46415;47.536;19.066;2023-07-13T10:01:36;-18942.97;;;26.45;84.35
60583;BME280;46415;47.536;19.066;2023-07-13T10:04:39;-18937.84;;;26.25;81.88
60583;BME280;46415;47.536;19.066;2023-07-13T10:07:43;-18946.34;;;26.57;82.27
60583;BME280;46415;47.536;19.066;2023-07-13T10:10:47;-18948.75;;;26.66;78.76
60583;BME280;46415;47.536;19.066;2023-07-13T10:13:55;-18958.06;;;27.01;75.04
60583;BME280;46415;47.536;19.066;2023-07-13T10:16:59;-18958.19;;;27.02;77.98
60583;BME280;46415;47.536;19.066;2023-07-13T10:20:05;-18959.53;;;27.07;77.76
60583;BME280;46415;47.536;19.066;2023-07-13T10:23:15;-18963.59;;;27.22;79.71
60583;BME280;46415;47.536;19.066;2023-07-13T10:26:24;-18967.63;;;27.37;76.20
60583;BME280;46415;47.536;19.066;2023-07-13T10:29:28;-18964.41;;;27.25;75.20
60583;BME280;46415;47.536;19.066;2023-07-13T10:32:31;-18961.56;;;27.14;76.66
60583;BME280;46415;47.536;19.066;2023-07-13T10:35:35;-18958.75;;;27.04;76.29
60583;BME280;46415;47.536;19.066;2023-07-13T10:38:37;-18954.41;;;26.88;76.17
60583;BME280;46415;47.536;19.066;2023-07-13T10:41:40;-18956.59;;;26.96;76.98
60583;BME280;46415;47.536;19.066;2023-07-13T10:44:44;-18960.50;;;27.10;71.85
60583;BME280;46415;47.536;19.066;2023-07-13T10:47:47;-18959.53;;;27.07;71.80
60583;BME280;46415;47.536;19.066;2023-07-13T10:50:51;-18961.56;;;27.14;75.21
60583;BME280;46415;47.536;19.066;2023-07-13T10:57:20;-18983.13;;;27.95;67.79
60583;BME280;46415;47.536;19.066;2023-07-13T11:00:23;-18983.25;;;27.96;67.18
60583;BME280;46415;47.536;19.066;2023-07-13T11:03:27;-18983.94;;;27.98;67.81
60583;BME280;46415;47.536;19.066;2023-07-13T11:06:37;-18984.59;;;28.01;64.51
60583;BME280;46415;47.536;19.066;2023-07-13T11:09:53;-18982.84;;;27.94;67.31
60583;BME280;46415;47.536;19.066;2023-07-13T11:12:56;-18977.19;;;27.73;65.56
60583;BME280;46415;47.536;19.066;2023-07-13T11:15:58;-18980.97;;;27.87;68.18
60583;BME280;46415;47.536;19.066;2023-07-13T11:28:23;-18995.66;;;28.42;65.37
60583;BME280;46415;47.536;19.066;2023-07-13T11:31:26;-19006.00;;;28.81;59.42
60583;BME280;46415;47.536;19.066;2023-07-13T11:34:36;-19009.25;;;28.94;60.20
60583;BME280;46415;47.536;19.066;2023-07-13T11:37:39;-19006.69;;;28.84;59.84
60583;BME280;46415;47.536;19.066;2023-07-13T11:40:43;-19011.78;;;29.03;60.01
60583;BME280;46415;47.536;19.066;2023-07-13T11:43:49;-19015.28;;;29.16;58.64
60583;BME280;46415;47.536;19.066;2023-07-13T11:46:54;-19022.94;;;29.45;55.63
60583;BME280;46415;47.536;19.066;2023-07-13T11:49:57;-19008.44;;;28.91;56.29
60583;BME280;46415;47.536;19.066;2023-07-13T11:53:01;-19011.66;;;29.03;56.80
60583;BME280;46415;47.536;19.066;2023-07-13T11:56:06;-19023.34;;;29.47;55.21
60583;BME280;46415;47.536;19.066;2023-07-13T11:59:10;-19027.66;;;29.63;55.78
60583;BME280;46415;47.536;19.066;2023-07-13T12:02:16;-19027.78;;;29.63;54.84
60583;BME280;46415;47.536;19.066;2023-07-13T12:05:20;-19036.12;;;29.95;53.78
60583;BME280;46415;47.536;19.066;2023-07-13T12:08:23;-19031.28;;;29.77;54.94
60583;BME280;46415;47.536;19.066;2023-07-13T12:11:26;-19016.22;;;29.20;55.43
60583;BME280;46415;47.536;19.066;2023-07-13T12:14:28;-19012.72;;;29.07;55.43
60583;BME280;46415;47.536;19.066;2023-07-13T12:17:31;-19021.75;;;29.41;54.68
60583;BME280;46415;47.536;19.066;2023-07-13T12:20:35;-19025.25;;;29.54;55.74
60583;BME280;46415;47.536;19.066;2023-07-13T12:23:39;-19022.69;;;29.44;54.31
60583;BME280;46415;47.536;19.066;2023-07-13T12:26:48;-19011.13;;;29.01;57.13
60583;BME280;46415;47.536;19.066;2023-07-13T12:30:02;-19012.06;;;29.04;56.75
60583;BME280;46415;47.536;19.066;2023-07-13T12:33:11;-19004.00;;;28.74;57.95
60583;BME280;46415;47.536;19.066;2023-07-13T12:36:14;-19010.59;;;28.99;57.71
60583;BME280;46415;47.536;19.066;2023-07-13T12:42:27;-19009.63;;;28.95;58.75
60583;BME280;46415;47.536;19.066;2023-07-13T12:45:30;-19006.53;;;28.84;59.42
60583;BME280;46415;47.536;19.066;2023-07-13T12:48:39;-19009.63;;;28.95;56.75
60583;BME280;46415;47.536;19.066;2023-07-13T12:51:55;-19010.84;;;29.00;55.91
60583;BME280;46415;47.536;19.066;2023-07-13T12:55:04;-19009.50;;;28.95;55.63
60583;BME280;46415;47.536;19.066;2023-07-13T12:58:24;-19010.84;;;29.00;56.87
60583;BME280;46415;47.536;19.066;2023-07-13T13:01:28;-19010.19;;;28.97;56.06
60583;BME280;46415;47.536;19.066;2023-07-13T13:04:31;-19010.03;;;28.97;55.36
60583;BME280;46415;47.536;19.066;2023-07-13T13:07:34;-19010.59;;;28.99;55.95
60583;BME280;46415;47.536;19.066;2023-07-13T13:10:37;-19005.06;;;28.78;56.46
60583;BME280;46415;47.536;19.066;2023-07-13T13:13:40;-19005.47;;;28.79;55.46
60583;BME280;46415;47.536;19.066;2023-07-13T13:16:49;-19004.94;;;28.77;55.24
60583;BME280;46415;47.536;19.066;2023-07-13T13:19:52;-19016.75;;;29.22;55.23
60583;BME280;46415;47.536;19.066;2023-07-13T13:22:56;-19025.78;;;29.56;52.86
60583;BME280;46415;47.536;19.066;2023-07-13T13:25:59;-19023.50;;;29.47;52.71
60583;BME280;46415;47.536;19.066;2023-07-13T13:29:08;-19030.88;;;29.75;53.46
60583;BME280;46415;47.536;19.066;2023-07-13T13:32:12;-19038.41;;;30.03;51.38
60583;BME280;46415;47.536;19.066;2023-07-13T13:35:16;-19043.66;;;30.23;51.20
60583;BME280;46415;47.536;19.066;2023-07-13T13:38:21;-19043.25;;;30.22;52.17
60583;BME280;46415;47.536;19.066;2023-07-13T13:41:25;-19038.00;;;30.02;50.97
60583;BME280;46415;47.536;19.066;2023-07-13T13:44:28;-19040.69;;;30.12;49.71
60583;BME280;46415;47.536;19.066;2023-07-13T13:47:32;-19042.97;;;30.21;52.71
60583;BME280;46415;47.536;19.066;2023-07-13T13:50:39;-19045.25;;;30.29;49.55
60583;BME280;46415;47.536;19.066;2023-07-13T13:53:41;-19044.72;;;30.27;51.16
60583;BME280;46415;47.536;19.066;2023-07-13T13:56:46;-19038.81;;;30.05;51.67
60583;BME280;46415;47.536;19.066;2023-07-13T13:59:49;-19045.13;;;30.29;52.84
60583;BME280;46415;47.536;19.066;2023-07-13T14:02:51;-19056.94;;;30.73;50.39
60583;BME280;46415;47.536;19.066;2023-07-13T14:05:56;-19058.00;;;30.77;50.46
60583;BME280;46415;47.536;19.066;2023-07-13T14:09:00;-19054.78;;;30.65;49.93
60583;BME280;46415;47.536;19.066;2023-07-13T14:12:03;-19060.69;;;30.88;49.40
60583;BME280;46415;47.536;19.066;2023-07-13T14:15:09;-19067.81;;;31.14;47.89
60583;BME280;46415;47.536;19.066;2023-07-13T14:18:16;-19064.59;;;31.02;48.12
60583;BME280;46415;47.536;19.066;2023-07-13T14:21:21;-19054.94;;;30.66;49.32
60583;BME280;46415;47.536;19.066;2023-07-13T14:24:24;-19054.13;;;30.63;50.28
60583;BME280;46415;47.536;19.066;2023-07-13T14:27:26;-19055.59;;;30.68;50.41
60583;BME280;46415;47.536;19.066;2023-07-13T14:30:28;-19046.31;;;30.33;53.02
60583;BME280;46415;47.536;19.066;2023-07-13T14:33:31;-19038.81;;;30.05;52.31
60583;BME280;46415;47.536;19.066;2023-07-13T14:36:35;-19038.69;;;30.05;52.86
60583;BME280;46415;47.536;19.066;2023-07-13T14:39:40;-19036.41;;;29.96;53.59
60583;BME280;46415;47.536;19.066;2023-07-13T14:42:45;-19030.47;;;29.74;53.76
60583;BME280;46415;47.536;19.066;2023-07-13T14:45:49;-19031.28;;;29.77;53.84
60583;BME280;46415;47.536;19.066;2023-07-13T14:48:54;-19032.91;;;29.83;53.42
60583;BME280;46415;47.536;19.066;2023-07-13T14:52:08;-19029.66;;;29.71;53.87
60583;BME280;46415;47.536;19.066;2023-07-13T14:55:14;-19033.03;;;29.83;55.46
60583;BME280;46415;47.536;19.066;2023-07-13T14:58:17;-19032.91;;;29.83;52.56
60583;BME280;46415;47.536;19.066;2023-07-13T15:01:19;-19040.28;;;30.11;53.16
60583;BME280;46415;47.536;19.066;2023-07-13T15:04:22;-19043.38;;;30.22;51.73
60583;BME280;46415;47.536;19.066;2023-07-13T15:07:25;-19046.88;;;30.35;52.18
60583;BME280;46415;47.536;19.066;2023-07-13T15:10:31;-19048.06;;;30.40;52.57
60583;BME280;46415;47.536;19.066;2023-07-13T15:13:35;-19046.59;;;30.34;50.06
60583;BME280;46415;47.536;19.066;2023-07-13T15:16:37;-19043.38;;;30.22;51.89
60583;BME280;46415;47.536;19.066;2023-07-13T15:19:40;-19037.72;;;30.01;52.26
60583;BME280;46415;47.536;19.066;2023-07-13T15:22:43;-19030.75;;;29.75;52.66
60583;BME280;46415;47.536;19.066;2023-07-13T15:25:46;-19022.53;;;29.44;52.27
60583;BME280;46415;47.536;19.066;2023-07-13T15:28:49;-19013.66;;;29.10;54.20
60583;BME280;46415;47.536;19.066;2023-07-13T15:31:52;-19013.00;;;29.08;54.16
60583;BME280;46415;47.536;19.066;2023-07-13T15:34:54;-19015.97;;;29.19;53.67
60583;BME280;46415;47.536;19.066;2023-07-13T15:37:57;-19011.94;;;29.04;54.07
60583;BME280;46415;47.536;19.066;2023-07-13T15:40:59;-19007.88;;;28.89;54.23
60583;BME280;46415;47.536;19.066;2023-07-13T15:44:04;-19006.69;;;28.84;55.96
60583;BME280;46415;47.536;19.066;2023-07-13T15:47:13;-19007.63;;;28.88;57.40
60583;BME280;46415;47.536;19.066;2023-07-13T15:50:19;-19002.91;;;28.70;55.79
60583;BME280;46415;47.536;19.066;2023-07-13T15:53:26;-19002.62;;;28.69;57.14
60583;BME280;46415;47.536;19.066;2023-07-13T15:56:35;-18995.25;;;28.41;54.86
60583;BME280;46415;47.536;19.066;2023-07-13T15:59:37;-19000.75;;;28.62;54.27
60583;BME280;46415;47.536;19.066;2023-07-13T16:02:40;-19000.63;;;28.61;53.70
60583;BME280;46415;47.536;19.066;2023-07-13T16:05:43;-18994.44;;;28.38;56.72
60583;BME280;46415;47.536;19.066;2023-07-13T16:08:46;-18991.59;;;28.27;56.01
60583;BME280;46415;47.536;19.066;2023-07-13T16:11:49;-18986.75;;;28.09;55.92
60583;BME280;46415;47.536;19.066;2023-07-13T16:14:53;-18983.78;;;27.98;57.74